createdAt,value
2019-03-06T00:01:31.811Z,10.21
2019-03-06T00:04:00.203Z,10.19
2019-03-06T00:06:32.289Z,10.19
2019-03-06T00:09:13.124Z,10.22
2019-03-06T00:11:49.420Z,10.22
2019-03-06T00:14:17.939Z,10.13
2019-03-06T00:16:46.478Z,10.20
2019-03-06T00:19:15.247Z,10.16
2019-03-06T00:21:43.757Z,10.17
2019-03-06T00:24:13.319Z,10.13
2019-03-06T00:26:59.105Z,10.24
2019-03-06T00:29:52.221Z,10.22
2019-03-06T00:32:16.737Z,10.24
2019-03-06T00:34:45.227Z,10.29
2019-03-06T00:37:13.955Z,10.23
2019-03-06T00:40:01.304Z,10.24
2019-03-06T00:42:33.769Z,10.30
2019-03-06T00:45:51.256Z,10.32
2019-03-06T00:47:34.487Z,10.27
2019-03-06T00:50:03.112Z,10.30
2019-03-06T00:52:32.667Z,10.22
2019-03-06T00:55:01.859Z,10.32
2019-03-06T00:57:30.641Z,10.31
2019-03-06T01:00:04.455Z,10.28
2019-03-06T01:02:32.011Z,10.25
2019-03-06T01:05:01.567Z,10.25
2019-03-06T01:07:33.010Z,10.01
2019-03-06T01:10:03.043Z,10.23
2019-03-06T01:12:31.565Z,10.27
2019-03-06T01:14:59.983Z,10.27
2019-03-06T01:17:29.964Z,10.34
2019-03-06T01:19:58.498Z,10.38
2019-03-06T01:22:27.013Z,10.42
2019-03-06T01:24:55.467Z,10.49
2019-03-06T01:27:25.535Z,10.51
2019-03-06T01:29:54.270Z,10.46
2019-03-06T01:32:24.060Z,10.37
2019-03-06T01:35:17.593Z,10.36
2019-03-06T01:38:04.222Z,10.32
2019-03-06T01:40:41.495Z,10.34
2019-03-06T01:43:29.445Z,10.38
2019-03-06T01:45:58.180Z,10.31
2019-03-06T01:48:34.260Z,10.29
2019-03-06T01:51:07.615Z,10.33
2019-03-06T01:53:37.002Z,10.27
2019-03-06T01:56:07.156Z,10.19
2019-03-06T01:58:37.560Z,10.20
2019-03-06T02:01:10.788Z,10.23
2019-03-06T02:03:45.364Z,10.27
2019-03-06T02:06:14.033Z,10.24
2019-03-06T02:08:42.602Z,10.13
2019-03-06T02:11:16.663Z,10.18
2019-03-06T02:13:45.512Z,10.19
2019-03-06T02:16:14.210Z,10.33
2019-03-06T02:18:43.220Z,10.44
2019-03-06T02:21:13.222Z,10.54
2019-03-06T02:23:41.675Z,10.55
2019-03-06T02:26:12.270Z,10.49
2019-03-06T02:28:43.749Z,10.57
2019-03-06T02:31:14.759Z,10.53
2019-03-06T02:33:45.916Z,10.40
2019-03-06T02:36:15.184Z,10.31
2019-03-06T02:38:44.332Z,10.47
2019-03-06T02:41:13.860Z,10.51
2019-03-06T02:43:43.374Z,10.56
2019-03-06T02:46:14.708Z,10.49
2019-03-06T02:48:43.240Z,10.48
2019-03-06T02:51:11.595Z,10.13
2019-03-06T02:53:40.137Z,10.29
2019-03-06T02:56:10.947Z,10.40
2019-03-06T02:59:20.018Z,10.48
2019-03-06T03:01:59.935Z,10.45
2019-03-06T03:04:39.484Z,10.17
2019-03-06T03:07:14.417Z,10.30
2019-03-06T03:09:43.254Z,10.37
2019-03-06T03:12:11.680Z,10.44
2019-03-06T03:14:40.139Z,10.28
2019-03-06T03:17:08.527Z,10.34
2019-03-06T03:19:37.081Z,10.45
2019-03-06T03:22:08.079Z,10.35
2019-03-06T03:24:37.337Z,10.33
2019-03-06T03:27:13.756Z,10.37
2019-03-06T03:29:44.009Z,10.39
2019-03-06T03:32:12.913Z,10.40
2019-03-06T03:34:43.252Z,10.44
2019-03-06T03:37:12.411Z,10.39
2019-03-06T03:39:44.769Z,10.50
2019-03-06T03:42:14.888Z,10.60
2019-03-06T03:44:47.094Z,10.64
2019-03-06T03:47:16.178Z,10.73
2019-03-06T03:49:44.753Z,10.68
2019-03-06T03:52:16.513Z,10.59
2019-03-06T03:54:44.952Z,10.71
2019-03-06T03:57:13.636Z,10.63
2019-03-06T03:59:42.415Z,10.67
2019-03-06T04:02:14.936Z,10.82
2019-03-06T04:04:45.739Z,10.78
2019-03-06T04:07:14.199Z,10.85
2019-03-06T04:09:45.688Z,10.91
2019-03-06T04:12:14.219Z,10.78
2019-03-06T04:14:42.636Z,10.80
2019-03-06T04:17:11.140Z,10.85
2019-03-06T04:19:39.931Z,10.94
2019-03-06T04:22:14.783Z,10.96
2019-03-06T04:24:46.539Z,11.01
2019-03-06T04:27:14.993Z,11.03
2019-03-06T04:29:44.032Z,11.01
2019-03-06T04:32:12.838Z,10.91
2019-03-06T04:34:43.095Z,10.95
2019-03-06T04:37:14.225Z,10.92
2019-03-06T04:39:43.449Z,10.81
2019-03-06T04:42:11.781Z,10.91
2019-03-06T04:44:40.264Z,10.89
2019-03-06T04:47:09.000Z,10.89
2019-03-06T04:49:37.790Z,10.93
2019-03-06T04:52:12.203Z,10.94
2019-03-06T04:54:40.632Z,10.89
2019-03-06T04:57:09.247Z,10.78
2019-03-06T04:59:38.673Z,10.75
2019-03-06T05:02:07.266Z,10.83
2019-03-06T05:04:38.820Z,10.88
2019-03-06T05:07:07.683Z,10.87
2019-03-06T05:09:36.258Z,10.77
2019-03-06T05:12:05.328Z,10.71
2019-03-06T05:14:34.785Z,10.85
2019-03-06T05:17:34.145Z,10.63
2019-03-06T05:20:05.959Z,10.67
2019-03-06T05:22:34.660Z,10.74
2019-03-06T05:25:03.124Z,10.82
2019-03-06T05:27:31.631Z,10.90
2019-03-06T05:30:04.119Z,10.69
2019-03-06T05:32:32.686Z,10.74
2019-03-06T05:35:02.797Z,10.85
2019-03-06T05:38:00.464Z,10.85
2019-03-06T05:40:29.449Z,10.72
2019-03-06T05:42:58.901Z,10.55
2019-03-06T05:45:31.480Z,10.65
2019-03-06T05:48:03.249Z,10.75
2019-03-06T05:50:38.044Z,10.54
2019-03-06T05:53:08.634Z,10.85
2019-03-06T05:55:37.982Z,10.87
2019-03-06T05:58:10.477Z,10.92
2019-03-06T06:00:51.313Z,11.00
2019-03-06T06:03:22.780Z,10.94
2019-03-06T06:05:51.779Z,10.96
2019-03-06T06:08:21.674Z,10.95
2019-03-06T06:10:52.084Z,10.95
2019-03-06T06:13:23.314Z,10.89
2019-03-06T06:15:52.639Z,10.85
2019-03-06T06:18:24.233Z,10.96
2019-03-06T06:21:09.034Z,11.00
2019-03-06T06:23:48.726Z,11.02
2019-03-06T06:26:17.614Z,11.07
2019-03-06T06:28:46.169Z,11.13
2019-03-06T06:31:19.716Z,11.18
2019-03-06T06:33:55.692Z,11.20
2019-03-06T06:36:29.583Z,11.14
2019-03-06T06:38:59.486Z,11.17
2019-03-06T06:42:39.808Z,11.15
2019-03-06T06:45:27.320Z,11.07
2019-03-06T06:48:22.552Z,11.11
2019-03-06T06:51:20.431Z,11.18
2019-03-06T06:54:13.156Z,11.02
2019-03-06T06:57:00.665Z,11.13
2019-03-06T06:59:50.059Z,11.14
2019-03-06T07:03:22.199Z,11.06
2019-03-06T07:06:01.500Z,11.03
2019-03-06T07:08:57.547Z,11.03
2019-03-06T07:11:44.222Z,11.16
2019-03-06T07:14:45.178Z,11.17
2019-03-06T07:17:45.470Z,11.20
2019-03-06T07:20:40.241Z,11.13
2019-03-06T07:23:22.557Z,10.90
2019-03-06T07:26:23.544Z,11.17
2019-03-06T07:29:31.449Z,11.14
2019-03-06T07:32:46.728Z,11.14
2019-03-06T07:35:50.023Z,11.25
2019-03-06T07:38:19.912Z,11.23
2019-03-06T07:41:09.176Z,11.23
2019-03-06T07:44:10.011Z,11.35
2019-03-06T07:47:08.292Z,11.47
2019-03-06T07:49:46.163Z,11.46
2019-03-06T07:52:22.734Z,11.66
2019-03-06T07:55:00.424Z,11.66
2019-03-06T07:57:51.156Z,11.84
2019-03-06T08:00:20.771Z,11.61
2019-03-06T08:02:57.078Z,11.89
2019-03-06T08:05:25.839Z,11.89
2019-03-06T08:08:00.305Z,11.96
2019-03-06T08:10:40.519Z,12.04
2019-03-06T08:13:23.918Z,12.09
2019-03-06T08:16:15.466Z,12.15
2019-03-06T08:19:16.786Z,12.02
2019-03-06T08:22:15.886Z,12.35
2019-03-06T08:25:08.324Z,12.42
2019-03-06T08:27:43.814Z,12.57
2019-03-06T08:30:31.172Z,12.59
2019-03-06T08:33:18.679Z,12.84
2019-03-06T08:35:52.209Z,13.15
2019-03-06T08:38:20.993Z,13.15
2019-03-06T08:40:51.210Z,13.36
2019-03-06T08:43:21.982Z,13.36
2019-03-06T08:46:20.765Z,13.42
2019-03-06T08:49:44.317Z,13.37
2019-03-06T08:52:30.931Z,13.73
2019-03-06T08:55:43.608Z,12.46
2019-03-06T08:58:37.218Z,13.66
2019-03-06T09:02:15.603Z,13.57
2019-03-06T09:05:07.828Z,13.81
2019-03-06T09:07:56.186Z,13.66
2019-03-06T09:10:48.275Z,13.77
2019-03-06T09:13:30.723Z,14.02
2019-03-06T09:16:25.615Z,14.07
2019-03-06T09:19:29.282Z,14.38
2019-03-06T09:22:42.118Z,14.42
2019-03-06T09:25:34.879Z,14.61
2019-03-06T09:28:15.829Z,14.82
2019-03-06T09:31:02.984Z,14.56
2019-03-06T09:34:10.496Z,14.56
2019-03-06T09:36:47.004Z,14.74
2019-03-06T09:39:35.883Z,14.53
2019-03-06T09:42:39.200Z,14.92
2019-03-06T09:45:19.613Z,14.90
2019-03-06T09:48:16.853Z,15.19
2019-03-06T09:51:00.261Z,14.70
2019-03-06T09:53:50.031Z,15.17
2019-03-06T09:56:30.938Z,15.06
2019-03-06T09:59:22.338Z,15.67
2019-03-06T10:02:13.743Z,16.36
2019-03-06T10:05:07.864Z,15.72
2019-03-06T10:07:53.744Z,15.87
2019-03-06T10:10:57.591Z,14.99
2019-03-06T10:13:42.168Z,14.99
2019-03-06T10:16:31.389Z,15.00
2019-03-06T10:19:29.642Z,13.77
2019-03-06T10:21:59.181Z,14.80
2019-03-06T10:24:28.540Z,14.80
2019-03-06T10:26:57.276Z,15.21
2019-03-06T10:29:28.563Z,14.67
2019-03-06T10:32:15.679Z,14.22
2019-03-06T10:34:55.998Z,14.22
2019-03-06T10:37:26.966Z,14.02
2019-03-06T10:39:59.712Z,13.93
2019-03-06T10:42:40.735Z,14.39
2019-03-06T10:45:14.827Z,14.66
2019-03-06T10:47:49.471Z,14.43
2019-03-06T10:50:27.366Z,14.66
2019-03-06T10:52:55.520Z,15.09
2019-03-06T10:55:24.268Z,15.15
2019-03-06T10:57:56.388Z,15.12
2019-03-06T11:00:25.843Z,14.94
2019-03-06T11:03:01.309Z,15.20
2019-03-06T11:05:40.761Z,15.28
2019-03-06T11:08:31.414Z,15.26
2019-03-06T11:11:00.558Z,15.06
2019-03-06T11:13:33.731Z,15.07
2019-03-06T11:33:55.069Z,15.13
2019-03-06T11:42:39.265Z,15.34
2019-03-06T11:45:30.565Z,15.53
2019-03-06T11:48:10.979Z,15.79
2019-03-06T11:57:11.724Z,16.21
2019-03-06T11:59:47.889Z,16.21
2019-03-06T12:02:41.707Z,16.20
2019-03-06T12:14:13.333Z,15.85
2019-03-06T12:16:52.625Z,16.18
2019-03-06T12:29:05.537Z,16.02
2019-03-06T12:32:01.677Z,15.90
2019-03-06T12:38:10.751Z,15.95
2019-03-06T12:47:07.035Z,16.31
2019-03-06T12:49:35.707Z,16.20
2019-03-06T12:52:08.749Z,16.08
2019-03-06T12:54:45.299Z,16.08
2019-03-06T12:57:09.870Z,16.29
2019-03-06T13:03:12.446Z,16.19
2019-03-06T13:12:08.799Z,16.14
2019-03-06T13:20:18.470Z,16.09
2019-03-06T13:25:57.302Z,16.17
2019-03-06T13:28:25.707Z,16.09
2019-03-06T13:31:24.730Z,16.23
2019-03-06T13:37:17.390Z,16.02
2019-03-06T13:40:03.314Z,15.98
2019-03-06T13:43:05.405Z,15.98
2019-03-06T13:45:45.594Z,15.91
2019-03-06T13:48:17.248Z,15.79
2019-03-06T13:50:48.065Z,15.53
2019-03-06T13:53:20.364Z,15.71
2019-03-06T14:01:07.837Z,15.89
2019-03-06T14:04:44.413Z,15.91
2019-03-06T14:07:08.751Z,15.89
2019-03-06T14:10:15.746Z,15.50
2019-03-06T14:15:54.269Z,15.66
2019-03-06T14:18:50.335Z,15.73
2019-03-06T14:24:26.116Z,14.93
2019-03-06T14:27:26.190Z,15.05
2019-03-06T14:44:47.260Z,15.06
2019-03-06T14:49:52.541Z,15.21
2019-03-06T14:57:58.587Z,15.09
2019-03-06T15:10:42.670Z,14.97
2019-03-06T15:15:00.683Z,14.97
2019-03-06T15:17:40.144Z,14.93
2019-03-06T15:29:11.934Z,14.93
2019-03-06T15:31:59.508Z,14.81
2019-03-06T15:34:37.786Z,14.88
2019-03-06T15:40:31.123Z,14.90
2019-03-06T15:43:02.072Z,14.88
2019-03-06T15:45:55.150Z,14.92
2019-03-06T15:56:14.805Z,14.91
2019-03-06T16:05:22.271Z,15.00
2019-03-06T16:07:52.964Z,14.99
2019-03-06T16:13:31.510Z,14.85
2019-03-06T16:19:27.712Z,15.01
2019-03-06T16:22:07.092Z,15.03
2019-03-06T16:27:34.191Z,14.98
2019-03-06T16:36:08.394Z,14.68
2019-03-06T16:39:07.946Z,14.48
2019-03-06T16:41:58.766Z,14.62
2019-03-06T16:49:48.922Z,14.70
2019-03-06T16:52:50.110Z,14.65
2019-03-06T16:58:36.197Z,14.14
2019-03-06T17:01:53.584Z,14.41
2019-03-06T17:04:24.178Z,14.70
2019-03-06T17:06:58.878Z,14.74
2019-03-06T17:09:33.134Z,14.60
2019-03-06T17:12:05.309Z,14.46
2019-03-06T17:14:41.611Z,14.55
2019-03-06T17:17:29.054Z,14.50
2019-03-06T17:32:29.635Z,14.33
2019-03-06T17:43:59.859Z,13.83
2019-03-06T17:49:35.063Z,13.94
2019-03-06T17:52:05.196Z,13.69
2019-03-06T17:54:33.614Z,13.82
2019-03-06T17:57:02.073Z,13.91
2019-03-06T18:09:12.792Z,13.70
2019-03-06T18:12:05.821Z,13.71
2019-03-06T18:14:54.396Z,13.82
2019-03-06T18:17:28.423Z,13.53
2019-03-06T18:20:19.096Z,13.68
2019-03-06T18:23:07.809Z,13.69
2019-03-06T18:25:41.471Z,13.79
2019-03-06T18:28:13.020Z,14.04
2019-03-06T18:30:43.586Z,13.96
2019-03-06T18:33:20.345Z,13.82
2019-03-06T18:35:56.348Z,13.82
2019-03-06T18:38:33.264Z,13.84
2019-03-06T18:41:07.861Z,13.86
2019-03-06T18:43:39.759Z,13.95
2019-03-06T18:46:10.670Z,14.05
2019-03-06T18:48:50.037Z,14.20
2019-03-06T18:51:24.816Z,13.98
2019-03-06T18:53:53.267Z,13.99
2019-03-06T18:56:23.929Z,13.77
2019-03-06T18:58:54.122Z,14.04
2019-03-06T19:01:25.943Z,13.96
2019-03-06T19:03:56.748Z,14.06
2019-03-06T19:06:28.415Z,14.14
2019-03-06T19:08:57.242Z,13.80
2019-03-06T19:11:33.366Z,14.07
2019-03-06T19:14:03.085Z,14.22
2019-03-06T19:16:38.604Z,14.44
2019-03-06T19:19:07.980Z,14.15
2019-03-06T19:21:36.424Z,14.34
2019-03-06T19:24:19.823Z,14.45
2019-03-06T19:26:48.231Z,14.42
2019-03-06T19:29:19.382Z,14.07
2019-03-06T19:31:48.324Z,13.82
2019-03-06T19:34:19.216Z,13.95
2019-03-06T19:36:51.443Z,13.95
2019-03-06T19:39:29.324Z,14.00
2019-03-06T19:42:03.153Z,13.87
2019-03-06T19:44:44.193Z,13.81
2019-03-06T19:47:19.090Z,14.05
2019-03-06T19:49:49.973Z,13.88
2019-03-06T19:52:27.698Z,13.77
2019-03-06T19:55:00.959Z,14.09
2019-03-06T19:57:30.200Z,13.96
2019-03-06T20:00:09.734Z,14.03
2019-03-06T20:02:42.259Z,13.83
2019-03-06T20:05:15.332Z,13.83
2019-03-06T20:07:47.108Z,13.61
2019-03-06T20:10:20.411Z,13.74
2019-03-06T20:12:50.811Z,13.61
2019-03-06T20:15:27.087Z,13.48
2019-03-06T20:17:57.809Z,13.30
2019-03-06T20:20:26.195Z,13.26
2019-03-06T20:23:02.717Z,13.37
2019-03-06T20:25:34.496Z,13.24
2019-03-06T20:28:05.214Z,13.11
2019-03-06T20:30:37.114Z,13.18
2019-03-06T20:33:08.499Z,13.11
2019-03-06T20:35:45.782Z,13.17
2019-03-06T20:38:14.670Z,13.25
2019-03-06T20:40:46.267Z,13.11
2019-03-06T20:43:14.795Z,13.39
2019-03-06T20:45:49.554Z,13.34
2019-03-06T20:48:18.020Z,13.50
2019-03-06T20:50:51.048Z,13.33
2019-03-06T20:53:23.231Z,13.39
2019-03-06T20:56:06.814Z,13.71
2019-03-06T20:58:36.058Z,13.88
2019-03-06T21:01:05.747Z,13.56
2019-03-06T21:07:38.259Z,13.74
2019-03-06T21:11:47.106Z,13.53
2019-03-06T21:16:58.369Z,13.91
2019-03-06T21:22:53.650Z,14.09
2019-03-06T21:35:15.124Z,14.32
2019-03-06T21:41:17.772Z,14.36
2019-03-06T21:44:06.928Z,14.34
2019-03-06T21:46:41.952Z,14.40
2019-03-06T21:49:29.290Z,14.40
2019-03-06T21:52:28.272Z,14.46
2019-03-06T21:58:15.543Z,14.39
2019-03-06T22:04:02.047Z,14.38
2019-03-06T22:09:47.218Z,14.40
2019-03-06T22:30:07.246Z,14.23
2019-03-06T22:32:40.757Z,14.26
2019-03-06T22:35:42.442Z,14.19
2019-03-06T22:50:41.356Z,14.16
2019-03-06T22:53:22.034Z,14.15
2019-03-06T22:56:01.121Z,14.18
2019-03-06T23:01:36.765Z,14.11
2019-03-06T23:04:06.936Z,14.10
2019-03-06T23:06:38.780Z,14.09
2019-03-06T23:09:19.736Z,14.09
2019-03-06T23:11:41.294Z,13.96
2019-03-06T23:14:13.288Z,13.91
